Time;durP1;ratioP1;P1;durP2;ratioP2;P2;SDS_P1;SDS_P2;PMS_P1;PMS_P2;Temp;Humidity;BMP_temperature;BMP_pressure;BME280_temperature;BME280_humidity;BME280_pressure;Samples;Min_cycle;Max_cycle;Signal;HPM_P1;HPM_P2
2023/02/01 00:01:53;;;;;;;51.10;34.25;;;;;;;-2.95;100.00;96796.81;5081842;28;20103;-61
2023/02/01 00:04:19;;;;;;;45.53;34.35;;;;;;;-2.95;100.00;96808.84;5083639;28;20156;-61
2023/02/01 00:06:44;;;;;;;47.55;32.75;;;;;;;-2.98;100.00;96802.06;5075378;28;20519;-61
2023/02/01 00:09:09;;;;;;;49.00;33.70;;;;;;;-3.02;100.00;96803.84;5078380;28;20020;-61
2023/02/01 00:11:35;;;;;;;53.95;35.60;;;;;;;-3.03;100.00;96798.69;5079235;28;20058;-61
2023/02/01 00:14:00;;;;;;;46.83;32.40;;;;;;;-3.09;100.00;96804.84;5084129;28;20035;-62
2023/02/01 00:16:28;;;;;;;46.15;31.08;;;;;;;-3.13;100.00;96798.03;5078621;28;20035;-61
2023/02/01 00:19:10;;;;;;;42.75;28.83;;;;;;;-3.13;100.00;96798.03;5082256;28;20063;-75
2023/02/01 00:21:36;;;;;;;41.97;27.70;;;;;;;-3.06;100.00;96803.91;5058723;28;20127;-62
2023/02/01 00:24:02;;;;;;;43.90;29.23;;;;;;;-3.03;100.00;96801.28;5090483;28;20077;-62
2023/02/01 00:26:38;;;;;;;43.50;29.95;;;;;;;-3.04;100.00;96804.72;5083658;28;20028;-62
2023/02/01 00:29:06;;;;;;;48.75;33.00;;;;;;;-3.10;100.00;96797.13;5073302;28;20090;-62
2023/02/01 00:31:32;;;;;;;47.65;31.73;;;;;;;-3.12;100.00;96810.03;5079332;28;20050;-62
2023/02/01 00:33:57;;;;;;;48.72;33.25;;;;;;;-3.13;100.00;96810.09;5080969;28;20036;-62
2023/02/01 00:36:23;;;;;;;46.65;31.63;;;;;;;-3.13;100.00;96810.09;5081790;28;20035;-62
2023/02/01 00:38:48;;;;;;;45.13;30.98;;;;;;;-3.10;100.00;96805.69;5082289;28;20394;-62
2023/02/01 00:41:19;;;;;;;43.50;29.13;;;;;;;-3.10;100.00;96808.28;5083649;28;20401;-62
2023/02/01 00:43:45;;;;;;;41.25;28.60;;;;;;;-3.12;100.00;96816.94;5077094;28;20074;-62
2023/02/01 00:46:12;;;;;;;38.15;27.30;;;;;;;-3.12;100.00;96815.19;5075108;28;20024;-62
2023/02/01 00:48:37;;;;;;;40.30;26.60;;;;;;;-3.11;100.00;96810.91;5082157;28;20027;-62
2023/02/01 00:51:05;;;;;;;36.60;25.70;;;;;;;-3.09;100.00;96806.56;5085614;28;20398;-62
2023/02/01 00:53:31;;;;;;;44.88;32.17;;;;;;;-3.03;100.00;96798.69;5088474;28;20051;-62
2023/02/01 00:55:57;;;;;;;41.80;27.95;;;;;;;-3.03;100.00;96809.88;5084286;28;20497;-62
2023/02/01 00:58:26;;;;;;;36.28;25.90;;;;;;;-3.08;100.00;96803.97;5074259;28;20035;-62
2023/02/01 01:01:10;;;;;;;31.15;23.48;;;;;;;-3.06;100.00;96809.06;5074608;28;20494;-60
2023/02/01 01:03:38;;;;;;;35.13;24.73;;;;;;;-3.05;100.00;96805.59;5084721;28;20546;-60
2023/02/01 01:06:06;;;;;;;32.50;23.45;;;;;;;-3.05;100.00;96810.75;5084007;28;20027;-60
2023/02/01 01:08:32;;;;;;;37.13;24.92;;;;;;;-3.03;100.00;96821.88;5090287;28;20016;-60
2023/02/01 01:10:58;;;;;;;35.30;25.70;;;;;;;-3.05;100.00;96821.06;5089869;28;20093;-60
2023/02/01 01:13:23;;;;;;;41.05;28.02;;;;;;;-3.03;100.00;96824.47;5089580;28;20727;-61
2023/02/01 01:15:49;;;;;;;42.95;28.55;;;;;;;-2.98;100.00;96827.81;5086791;28;20027;-67
2023/02/01 01:18:14;;;;;;;42.30;27.88;;;;;;;-2.98;100.00;96824.38;5082542;28;20115;-65
2023/02/01 01:20:40;;;;;;;39.35;26.10;;;;;;;-2.96;100.00;96820.91;5080493;28;20107;-60
2023/02/01 01:23:07;;;;;;;37.83;26.10;;;;;;;-2.93;100.00;96822.56;5084325;28;20030;-60
2023/02/01 01:25:37;;;;;;;41.28;29.20;;;;;;;-2.84;100.00;96826.66;5084260;28;20055;-60
2023/02/01 01:28:02;;;;;;;42.70;30.02;;;;;;;-2.80;100.00;96825.72;5095642;28;20029;-60
2023/02/01 01:30:28;;;;;;;39.33;28.52;;;;;;;-2.81;100.00;96824.88;5083197;28;20055;-60
2023/02/01 01:32:53;;;;;;;49.25;30.30;;;;;;;-2.75;100.00;96831.66;5079287;28;20042;-60
2023/02/01 01:35:18;;;;;;;105.40;60.35;;;;;;;-2.70;100.00;96828.94;5077239;28;20027;-63
2023/02/01 01:37:44;;;;;;;55.85;36.55;;;;;;;-2.69;100.00;96831.50;5080020;28;20382;-60
2023/02/01 01:40:10;;;;;;;55.63;34.90;;;;;;;-2.74;100.00;96830.78;5085301;28;20036;-70
2023/02/01 01:42:40;;;;;;;46.30;32.35;;;;;;;-2.74;100.00;96825.63;5074430;28;20032;-70
2023/02/01 01:45:22;;;;;;;42.00;28.92;;;;;;;-2.75;100.00;96819.59;5083850;28;20028;-70
2023/02/01 01:47:51;;;;;;;42.75;30.67;;;;;;;-2.76;100.00;96823.06;5084147;28;20016;-70
2023/02/01 01:50:23;;;;;;;40.33;28.27;;;;;;;-2.77;100.00;96816.22;5085966;28;20032;-70
2023/02/01 01:52:51;;;;;;;44.53;31.45;;;;;;;-2.75;100.00;96813.59;5079147;28;20112;-70
2023/02/01 01:55:19;;;;;;;50.03;33.45;;;;;;;-2.72;100.00;96821.28;5086584;28;20043;-67
2023/02/01 01:57:53;;;;;;;46.20;32.70;;;;;;;-2.74;100.00;96825.63;5076762;28;20024;-63
2023/02/01 02:00:20;;;;;;;41.22;30.75;;;;;;;-2.81;100.00;96822.31;5087548;28;20037;-67
2023/02/01 02:02:51;;;;;;;48.80;33.08;;;;;;;-2.84;100.00;96821.50;5078017;28;20025;-67
2023/02/01 02:05:18;;;;;;;39.38;28.05;;;;;;;-2.88;100.00;96818.16;5085481;28;20437;-66
2023/02/01 02:07:48;;;;;;;38.38;28.17;;;;;;;-2.88;100.00;96833.59;5082501;28;20100;-67
2023/02/01 02:10:15;;;;;;;41.55;31.25;;;;;;;-2.90;100.00;96825.94;5078477;28;20032;-67
2023/02/01 02:12:43;;;;;;;37.40;27.98;;;;;;;-2.93;100.00;96822.56;5083375;28;20086;-67
2023/02/01 02:15:11;;;;;;;37.95;26.25;;;;;;;-3.01;100.00;96827.84;5086668;28;20034;-74
2023/02/01 02:17:58;;;;;;;36.65;27.17;;;;;;;-3.04;100.00;96822.78;5085253;28;20055;-66
2023/02/01 02:20:35;;;;;;;34.17;27.67;;;;;;;-3.09;100.00;96820.31;5089230;28;20039;-67
2023/02/01 02:23:22;;;;;;;36.58;28.73;;;;;;;-3.13;100.00;96828.13;5085197;28;20397;-67
2023/02/01 02:26:02;;;;;;;39.22;28.50;;;;;;;-3.14;100.00;96816.13;5086922;28;20078;-67
2023/02/01 02:28:52;;;;;;;42.75;27.38;;;;;;;-3.13;100.00;96822.97;5088486;28;20026;-67
2023/02/01 02:31:28;;;;;;;41.97;29.73;;;;;;;-3.23;100.00;96815.41;5088848;28;20114;-67
2023/02/01 02:34:27;;;;;;;32.08;26.27;;;;;;;-3.26;100.00;96818.03;5067343;28;20065;-66
2023/02/01 02:37:18;;;;;;;33.13;25.67;;;;;;;-3.27;100.00;96816.34;5084496;28;20031;-74
2023/02/01 02:40:06;;;;;;;22.30;19.70;;;;;;;-3.25;100.00;96813.75;5089925;28;20045;-66
2023/02/01 02:48:47;;;;;;;25.55;19.98;;;;;;;-3.33;100.00;96799.28;5088578;28;20031;-66
2023/02/01 03:05:15;;;;;;;21.75;17.08;;;;;;;-3.01;100.00;96786.63;5089768;28;20047;-69
2023/02/01 03:07:44;;;;;;;22.73;17.65;;;;;;;-2.94;100.00;96784.78;5086864;28;20149;-70
2023/02/01 03:10:36;;;;;;;17.98;15.93;;;;;;;-2.83;100.00;96781.97;5088235;28;20032;-69
2023/02/01 03:13:25;;;;;;;19.05;16.90;;;;;;;-2.85;100.00;96784.59;5081202;28;20059;-67
2023/02/01 03:15:54;;;;;;;20.65;17.45;;;;;;;-2.86;100.00;96779.47;5078416;28;20028;-62
2023/02/01 03:18:32;;;;;;;30.67;20.42;;;;;;;-2.90;100.00;96776.94;5088711;28;20016;-62
2023/02/01 03:21:00;;;;;;;34.97;23.67;;;;;;;-2.82;100.00;96781.09;5072585;28;20440;-62
2023/02/01 03:23:30;;;;;;;30.77;22.27;;;;;;;-2.79;100.00;96768.13;5087223;28;20035;-62
2023/02/01 03:25:59;;;;;;;26.10;21.30;;;;;;;-2.76;100.00;96768.09;5084821;28;20499;-62
2023/02/01 03:28:27;;;;;;;26.98;19.92;;;;;;;-2.71;100.00;96770.53;5081708;28;20099;-62
2023/02/01 03:30:53;;;;;;;26.27;18.85;;;;;;;-2.71;100.00;96773.97;5083219;28;20027;-62
2023/02/01 03:33:21;;;;;;;25.50;19.85;;;;;;;-2.74;100.00;96771.47;5088883;28;20032;-70
2023/02/01 03:36:14;;;;;;;23.85;17.98;;;;;;;-2.73;100.00;96773.16;5078387;28;20043;-61
2023/02/01 03:39:04;;;;;;;24.45;19.35;;;;;;;-2.74;100.00;96780.03;5075658;28;20024;-62
2023/02/01 03:41:42;;;;;;;24.65;19.13;;;;;;;-2.73;100.00;96780.91;5077529;28;20494;-61
2023/02/01 03:44:19;;;;;;;23.40;19.23;;;;;;;-2.76;100.00;96786.13;5074793;28;20091;-60
2023/02/01 03:47:09;;;;;;;23.67;18.05;;;;;;;-2.71;100.00;96775.69;5081656;28;20027;-60
2023/02/01 03:49:45;;;;;;;20.52;16.08;;;;;;;-2.70;100.00;96774.81;5067639;28;20043;-61
2023/02/01 03:52:15;;;;;;;24.50;18.35;;;;;;;-2.71;100.00;96776.56;5083856;28;20035;-65
2023/02/01 03:54:42;;;;;;;20.92;16.35;;;;;;;-2.71;100.00;96783.44;5086559;28;20526;-69
2023/02/01 03:57:11;;;;;;;23.00;17.38;;;;;;;-2.66;100.00;96787.63;5081474;28;20035;-69
2023/02/01 03:59:41;;;;;;;20.17;15.70;;;;;;;-2.58;100.00;96792.59;5055592;28;20032;-69
2023/02/01 04:02:07;;;;;;;19.38;17.30;;;;;;;-2.47;100.00;96787.22;5085518;28;20129;-69
2023/02/01 04:04:34;;;;;;;17.80;15.23;;;;;;;-2.41;100.00;96792.22;5083352;28;20032;-69
2023/02/01 04:06:59;;;;;;;16.95;14.65;;;;;;;-2.41;100.00;96789.63;5084065;28;20404;-69
2023/02/01 04:09:24;;;;;;;19.15;14.68;;;;;;;-2.40;100.00;96793.91;5089059;28;20028;-69
2023/02/01 04:11:50;;;;;;;26.40;18.05;;;;;;;-2.32;100.00;96796.31;5075226;28;20039;-61
2023/02/01 04:14:16;;;;;;;23.67;17.25;;;;;;;-2.35;100.00;96798.97;5084648;28;20031;-67
2023/02/01 04:16:41;;;;;;;22.42;16.55;;;;;;;-2.34;100.00;96798.91;5083403;28;20039;-67
2023/02/01 04:19:06;;;;;;;20.08;15.73;;;;;;;-2.38;100.00;96806.78;5085377;28;20394;-68
2023/02/01 04:21:32;;;;;;;19.50;15.73;;;;;;;-2.40;100.00;96804.22;5085028;28;20039;-67
2023/02/01 04:23:57;;;;;;;20.10;16.15;;;;;;;-2.37;100.00;96814.47;5078753;28;20027;-66
2023/02/01 04:26:23;;;;;;;19.58;16.67;;;;;;;-2.34;100.00;96811.81;5090365;28;20521;-67
2023/02/01 04:28:48;;;;;;;22.92;18.15;;;;;;;-2.30;100.00;96815.19;5077666;28;20443;-67
2023/02/01 04:31:17;;;;;;;20.08;16.67;;;;;;;-2.29;100.00;96821.19;5071791;28;20097;-64
2023/02/01 04:33:43;;;;;;;19.10;16.17;;;;;;;-2.31;100.00;96816.06;5083431;28;20401;-67
2023/02/01 04:36:09;;;;;;;18.77;16.65;;;;;;;-2.33;100.00;96810.09;5089605;28;20108;-67
2023/02/01 04:38:34;;;;;;;19.10;16.60;;;;;;;-2.28;100.00;96812.59;5075808;28;20028;-67
2023/02/01 04:41:00;;;;;;;19.45;16.40;;;;;;;-2.32;100.00;96817.81;5067484;28;20145;-67
2023/02/01 04:43:25;;;;;;;19.55;17.58;;;;;;;-2.31;100.00;96805.75;5080784;28;20067;-67
2023/02/01 04:45:51;;;;;;;25.73;18.13;;;;;;;-2.28;100.00;96822.91;5069033;28;20067;-66
2023/02/01 04:48:18;;;;;;;25.17;18.45;;;;;;;-2.25;100.00;96815.09;5084372;28;20085;-67
2023/02/01 04:50:48;;;;;;;32.45;21.10;;;;;;;-2.25;100.00;96813.34;5089896;28;20161;-65
2023/02/01 04:53:17;;;;;;;21.67;18.42;;;;;;;-2.27;100.00;96814.28;5087763;28;20032;-75
2023/02/01 04:55:43;;;;;;;17.70;15.93;;;;;;;-2.28;100.00;96813.41;5080581;28;20024;-73
2023/02/01 04:58:10;;;;;;;20.08;16.92;;;;;;;-2.29;100.00;96806.56;5090085;28;20157;-73
2023/02/01 05:00:35;;;;;;;18.95;16.90;;;;;;;-2.27;100.00;96803.97;5088581;28;20374;-74
2023/02/01 05:03:01;;;;;;;40.35;21.80;;;;;;;-2.26;100.00;96805.66;5093291;28;20034;-74
2023/02/01 05:05:27;;;;;;;62.55;30.83;;;;;;;-2.26;100.00;96801.31;5089476;28;20016;-73
2023/02/01 05:07:52;;;;;;;43.35;24.33;;;;;;;-2.27;100.00;96801.38;5089791;28;20375;-73
2023/02/01 05:10:17;;;;;;;62.17;28.40;;;;;;;-2.32;100.00;96801.47;5089034;28;20047;-67
2023/02/01 05:15:28;;;;;;;40.95;27.38;;;;;;;-2.27;100.00;96796.22;5088355;28;20031;-60
2023/02/01 05:17:53;;;;;;;47.30;28.02;;;;;;;-2.29;100.00;96796.25;5089389;28;20142;-60
2023/02/01 05:20:19;;;;;;;46.22;31.70;;;;;;;-2.31;100.00;96806.63;5089812;28;20114;-61
2023/02/01 05:22:44;;;;;;;48.28;33.15;;;;;;;-2.31;100.00;96805.75;5087977;28;20097;-60
2023/02/01 05:25:09;;;;;;;41.83;31.67;;;;;;;-2.32;100.00;96799.75;5089613;28;20081;-60
2023/02/01 05:27:35;;;;;;;44.92;33.97;;;;;;;-2.28;100.00;96797.09;5089422;28;20073;-59
2023/02/01 05:30:02;;;;;;;40.92;31.90;;;;;;;-2.28;100.00;96797.09;5089536;28;20016;-61
2023/02/01 05:32:27;;;;;;;39.08;30.50;;;;;;;-2.27;100.00;96799.63;5089348;28;20030;-64
2023/02/01 05:34:52;;;;;;;39.17;30.02;;;;;;;-2.27;100.00;96809.13;5089451;28;20106;-65
2023/02/01 05:37:18;;;;;;;35.53;27.15;;;;;;;-2.26;100.00;96798.75;5089267;28;20046;-64
2023/02/01 05:39:43;;;;;;;38.85;29.70;;;;;;;-2.27;100.00;96809.94;5089113;28;20024;-65
2023/02/01 05:42:08;;;;;;;33.55;27.67;;;;;;;-2.25;100.00;96812.50;5089311;28;20024;-64
2023/02/01 05:44:34;;;;;;;32.05;24.90;;;;;;;-2.26;100.00;96814.22;5089284;28;20097;-64
2023/02/01 05:46:59;;;;;;;32.17;23.95;;;;;;;-2.23;100.00;96821.06;5088613;28;20097;-69
2023/02/01 05:49:24;;;;;;;28.27;21.38;;;;;;;-2.21;100.00;96814.13;5074286;28;20074;-65
2023/02/01 05:51:50;;;;;;;25.92;22.65;;;;;;;-2.18;100.00;96829.53;5093024;28;20024;-62
2023/02/01 05:54:15;;;;;;;40.97;34.90;;;;;;;-2.16;100.00;96832.91;5093358;28;20488;-62
2023/02/01 05:56:40;;;;;;;31.10;25.98;;;;;;;-2.13;100.00;96822.53;5093916;28;20032;-62
2023/02/01 05:59:06;;;;;;;23.17;20.20;;;;;;;-2.08;100.00;96822.41;5092997;28;20016;-62
2023/02/01 06:01:31;;;;;;;28.48;21.85;;;;;;;-2.04;100.00;96824.03;5095051;28;20040;-62
2023/02/01 06:03:57;;;;;;;35.13;28.77;;;;;;;-2.00;100.00;96822.25;5094017;28;20111;-62
2023/02/01 06:06:22;;;;;;;38.70;30.70;;;;;;;-1.95;100.00;96820.38;5093283;28;20024;-68
2023/02/01 06:08:47;;;;;;;41.20;31.67;;;;;;;-1.97;100.00;96827.31;5092953;28;20027;-69
2023/02/01 06:11:13;;;;;;;30.33;24.77;;;;;;;-1.91;100.00;96833.19;5092688;28;20024;-64
2023/02/01 06:13:38;;;;;;;24.05;21.00;;;;;;;-1.91;100.00;96837.50;5092445;28;20065;-64
2023/02/01 06:16:05;;;;;;;23.63;19.25;;;;;;;-1.88;100.00;96840.00;5092971;28;20085;-64
2023/02/01 06:18:31;;;;;;;22.77;19.67;;;;;;;-1.85;100.00;96845.13;5092752;28;20027;-65
2023/02/01 06:20:59;;;;;;;22.42;20.02;;;;;;;-1.83;100.00;96845.91;5092398;28;20016;-64
2023/02/01 06:23:25;;;;;;;26.63;21.70;;;;;;;-1.82;100.00;96849.34;5092934;28;20035;-64
2023/02/01 06:25:52;;;;;;;22.88;20.42;;;;;;;-1.80;100.00;96835.50;5092502;28;20024;-60
2023/02/01 06:28:17;;;;;;;21.90;19.52;;;;;;;-1.80;100.00;96847.56;5093126;28;20024;-64
2023/02/01 06:30:45;;;;;;;25.60;20.75;;;;;;;-1.79;100.00;96839.78;5091834;28;20024;-59
2023/02/01 06:33:14;;;;;;;24.08;21.48;;;;;;;-1.75;100.00;96838.00;5092694;28;20046;-60
2023/02/01 06:35:41;;;;;;;23.45;19.58;;;;;;;-1.76;100.00;96831.97;5073831;28;20052;-60
2023/02/01 06:38:06;;;;;;;20.33;17.75;;;;;;;-1.77;100.00;96830.28;5092394;28;20032;-60
2023/02/01 06:40:32;;;;;;;22.13;17.90;;;;;;;-1.77;100.00;96830.28;5092224;28;20031;-60
2023/02/01 06:42:58;;;;;;;21.13;18.45;;;;;;;-1.75;100.00;96838.81;5092439;28;20052;-60
2023/02/01 06:45:23;;;;;;;20.52;16.95;;;;;;;-1.74;100.00;96821.63;5092174;28;20508;-60
2023/02/01 06:47:48;;;;;;;20.95;17.63;;;;;;;-1.73;100.00;96831.06;5092853;28;20024;-59
2023/02/01 06:50:14;;;;;;;21.70;18.05;;;;;;;-1.71;100.00;96838.75;5091792;28;20026;-67
2023/02/01 06:52:39;;;;;;;19.52;17.20;;;;;;;-1.71;100.00;96841.31;5092331;28;20035;-67
2023/02/01 06:55:05;;;;;;;23.15;18.70;;;;;;;-1.74;100.00;96840.50;5073923;28;20024;-67
2023/02/01 06:57:32;;;;;;;18.98;17.00;;;;;;;-1.74;100.00;96845.69;5091556;28;20073;-68
2023/02/01 06:59:58;;;;;;;23.83;20.67;;;;;;;-1.69;100.00;96840.41;5090905;28;20032;-67
2023/02/01 07:02:23;;;;;;;23.40;19.80;;;;;;;-1.67;100.00;96842.94;5096475;28;20035;-67
2023/02/01 07:04:49;;;;;;;25.08;20.77;;;;;;;-1.63;100.00;96854.91;5091924;28;20027;-61
2023/02/01 07:07:15;;;;;;;24.70;20.33;;;;;;;-1.64;100.00;96856.63;5091732;28;20027;-65
2023/02/01 07:09:40;;;;;;;22.55;19.90;;;;;;;-1.61;100.00;96863.47;5088209;28;20098;-66
2023/02/01 07:12:06;;;;;;;21.52;17.85;;;;;;;-1.58;100.00;96864.22;5088049;28;20505;-66
2023/02/01 07:14:31;;;;;;;20.77;18.35;;;;;;;-1.58;100.00;96871.97;5091549;28;20028;-67
2023/02/01 07:16:56;;;;;;;25.80;21.83;;;;;;;-1.52;100.00;96876.13;5089894;28;20036;-66
2023/02/01 07:19:22;;;;;;;26.38;23.58;;;;;;;-1.50;100.00;96871.78;5090121;28;20020;-69
2023/02/01 07:21:47;;;;;;;28.88;21.65;;;;;;;-1.51;100.00;96877.84;5069309;28;20387;-66
2023/02/01 07:24:14;;;;;;;23.90;21.05;;;;;;;-1.51;100.00;96877.00;5084242;28;20036;-60
2023/02/01 07:26:39;;;;;;;24.88;19.95;;;;;;;-1.48;100.00;96885.50;5091570;28;20493;-66
2023/02/01 07:29:05;;;;;;;20.65;18.45;;;;;;;-1.49;100.00;96875.22;5088567;28;20055;-66
2023/02/01 07:31:30;;;;;;;22.10;19.67;;;;;;;-1.45;100.00;96877.66;5083461;28;20028;-65
2023/02/01 07:33:57;;;;;;;22.15;18.73;;;;;;;-1.40;100.00;96887.06;5088660;28;20035;-66
2023/02/01 07:36:23;;;;;;;28.10;21.30;;;;;;;-1.38;100.00;96888.69;5090530;28;20031;-65
2023/02/01 07:38:49;;;;;;;21.10;18.52;;;;;;;-1.32;100.00;96896.31;5086880;28;20016;-65
2023/02/01 07:41:15;;;;;;;21.67;18.55;;;;;;;-1.27;100.00;96897.94;5084515;28;20473;-66
2023/02/01 07:43:40;;;;;;;22.40;20.00;;;;;;;-1.24;100.00;96900.44;5088731;28;20634;-72
2023/02/01 07:46:06;;;;;;;22.88;19.55;;;;;;;-1.22;100.00;96915.00;5090761;28;20039;-64
2023/02/01 07:48:33;;;;;;;21.95;17.55;;;;;;;-1.17;100.00;96912.28;5091113;28;20057;-64
2023/02/01 07:51:04;;;;;;;22.15;19.33;;;;;;;-1.14;100.00;96925.13;5090931;28;20027;-65
2023/02/01 07:53:30;;;;;;;22.10;17.92;;;;;;;-1.10;100.00;96936.25;5090675;28;20386;-64
2023/02/01 07:55:56;;;;;;;21.33;18.73;;;;;;;-1.08;100.00;96952.56;5090931;28;20020;-64
2023/02/01 07:58:25;;;;;;;21.25;18.77;;;;;;;-1.06;100.00;96963.72;5091559;28;20395;-64
2023/02/01 08:03:35;;;;;;;25.00;20.63;;;;;;;-0.94;100.00;96967.72;5096273;28;20119;-72
2023/02/01 08:06:00;;;;;;;21.80;19.13;;;;;;;-0.87;100.00;96966.69;5090782;28;20111;-64
2023/02/01 08:08:26;;;;;;;18.73;15.57;;;;;;;-0.75;100.00;96975.88;5090894;28;20099;-64
2023/02/01 08:10:51;;;;;;;19.40;14.23;;;;;;;-0.64;100.00;96981.59;5090349;28;20607;-64
2023/02/01 08:13:16;;;;;;;18.50;14.60;;;;;;;-0.65;100.00;96990.25;5090608;28;20085;-64
2023/02/01 08:15:42;;;;;;;23.17;18.00;;;;;;;-0.68;100.00;96989.47;5090595;28;20069;-64
2023/02/01 08:18:09;;;;;;;21.25;17.98;;;;;;;-0.71;100.00;96972.31;5090665;28;20107;-64
2023/02/01 08:20:35;;;;;;;20.70;17.00;;;;;;;-0.70;100.00;96966.25;5090294;28;20455;-64
2023/02/01 08:23:01;;;;;;;22.55;17.75;;;;;;;-0.71;100.00;96959.38;5090447;28;20117;-73
2023/02/01 08:25:27;;;;;;;19.52;16.77;;;;;;;-0.69;100.00;96959.31;5090545;28;20107;-67
2023/02/01 08:27:54;;;;;;;17.67;15.73;;;;;;;-0.69;100.00;96960.19;5090628;28;20020;-67
2023/02/01 08:30:20;;;;;;;20.80;17.55;;;;;;;-0.68;100.00;96972.22;5090356;28;20081;-69
2023/02/01 08:32:45;;;;;;;21.75;16.40;;;;;;;-0.67;100.00;96978.22;5090451;28;20482;-67
2023/02/01 08:35:11;;;;;;;19.17;15.98;;;;;;;-0.71;100.00;96972.31;5090175;28;20032;-67
2023/02/01 08:37:36;;;;;;;16.27;14.20;;;;;;;-0.68;100.00;96958.41;5090586;28;20020;-67
2023/02/01 08:40:03;;;;;;;18.17;14.77;;;;;;;-0.61;100.00;96947.88;5089889;28;20020;-67
2023/02/01 08:45:13;;;;;;;32.83;25.55;;;;;;;-0.54;100.00;96934.78;5090193;28;20030;-68
2023/02/01 08:47:38;;;;;;;27.55;24.63;;;;;;;-0.56;100.00;96934.81;5090166;28;20099;-67
2023/02/01 08:50:04;;;;;;;27.13;23.35;;;;;;;-0.58;100.00;96921.91;5090125;28;20050;-68
2023/02/01 08:52:30;;;;;;;25.42;22.75;;;;;;;-0.53;100.00;96934.72;5090337;28;20104;-67
2023/02/01 08:54:55;;;;;;;24.50;21.85;;;;;;;-0.44;100.00;96928.44;5090147;28;20016;-67
2023/02/01 08:57:20;;;;;;;24.85;19.92;;;;;;;-0.37;100.00;96931.72;5089870;28;20036;-67
2023/02/01 08:59:46;;;;;;;22.83;19.98;;;;;;;-0.27;100.00;96922.78;5090087;28;20020;-73
2023/02/01 09:02:16;;;;;;;23.00;17.42;;;;;;;-0.20;100.00;96913.09;5095222;28;20039;-64
2023/02/01 09:04:42;;;;;;;21.63;17.13;;;;;;;-0.23;100.00;96910.59;5089983;28;20076;-67
2023/02/01 09:07:08;;;;;;;18.73;16.23;;;;;;;-0.25;100.00;96915.81;5089494;28;20106;-67
2023/02/01 09:09:34;;;;;;;17.95;15.88;;;;;;;-0.02;100.00;96909.94;5089932;28;20028;-67
2023/02/01 09:11:59;;;;;;;21.17;18.80;;;;;;;0.40;100.00;96895.69;5089740;28;20023;-67
2023/02/01 09:14:24;;;;;;;30.35;24.55;;;;;;;0.85;100.00;96901.13;5089877;28;20039;-67
2023/02/01 09:16:50;;;;;;;23.02;20.65;;;;;;;1.28;96.44;96896.22;5089521;28;20150;-66
2023/02/01 09:19:15;;;;;;;21.13;18.75;;;;;;;1.38;94.48;96891.53;5089478;28;20027;-60
2023/02/01 09:21:40;;;;;;;21.23;19.00;;;;;;;1.53;93.99;96877.97;5089458;28;20039;-72
2023/02/01 09:24:06;;;;;;;11.05;9.90;;;;;;;1.79;93.68;96880.50;5089588;28;20024;-60
2023/02/01 09:26:32;;;;;;;10.45;8.30;;;;;;;2.10;92.54;96887.97;5089648;28;21133;-60
2023/02/01 09:28:58;;;;;;;7.95;5.78;;;;;;;2.36;88.43;96893.88;5089458;28;20016;-60
2023/02/01 09:31:24;;;;;;;12.40;10.63;;;;;;;2.65;88.77;96898.81;5089367;28;20040;-60
2023/02/01 09:33:49;;;;;;;14.43;9.68;;;;;;;2.95;87.12;96906.22;5089539;28;20031;-59
2023/02/01 09:36:14;;;;;;;11.10;8.45;;;;;;;3.22;85.53;96913.78;5089617;28;20024;-59
2023/02/01 09:38:40;;;;;;;32.08;20.92;;;;;;;3.29;84.44;96921.25;5089412;28;20028;-65
2023/02/01 09:41:37;;;;;;;10.55;9.45;;;;;;;3.40;83.12;96922.53;5089206;28;20043;-74
2023/02/01 09:44:33;;;;;;;11.48;9.48;;;;;;;3.46;80.90;96929.25;5089526;28;20117;-66
2023/02/01 09:47:02;;;;;;;15.75;13.13;;;;;;;3.36;81.16;96928.81;5089867;28;20028;-67
2023/02/01 09:49:33;;;;;;;15.98;13.02;;;;;;;3.25;81.17;96918.84;5088939;28;20012;-67
2023/02/01 09:52:02;;;;;;;16.02;13.55;;;;;;;3.23;80.27;96926.72;5089655;28;20042;-67
2023/02/01 09:55:02;;;;;;;17.70;13.88;;;;;;;3.19;81.03;96939.91;5089227;28;20016;-67
2023/02/01 09:57:54;;;;;;;43.92;32.20;;;;;;;3.12;80.80;96945.41;5085745;28;20020;-67
2023/02/01 10:00:43;;;;;;;25.25;19.23;;;;;;;3.31;79.14;96955.03;5089583;28;20388;-61
2023/02/01 10:03:12;;;;;;;24.55;17.60;;;;;;;3.50;78.95;96970.69;5094930;28;20413;-66
2023/02/01 10:05:50;;;;;;;20.65;16.48;;;;;;;3.56;77.10;96982.59;5088845;28;20031;-66
2023/02/01 10:08:35;;;;;;;13.98;12.52;;;;;;;3.53;76.78;96987.94;5089284;28;20931;-67
2023/02/01 10:11:47;;;;;;;13.20;9.82;;;;;;;3.51;77.76;97008.00;5089508;28;20050;-67
2023/02/01 10:14:35;;;;;;;12.57;11.40;;;;;;;3.52;77.45;97018.34;5077367;28;20062;-67
2023/02/01 10:17:12;;;;;;;16.98;12.65;;;;;;;3.68;77.24;97015.06;5088931;28;20036;-65
2023/02/01 10:19:57;;;;;;;33.75;23.73;;;;;;;3.73;76.40;97016.56;5089171;28;20051;-65
2023/02/01 10:22:39;;;;;;;13.17;10.60;;;;;;;4.10;76.53;97015.88;5089149;28;20055;-74
2023/02/01 10:25:13;;;;;;;15.52;11.48;;;;;;;4.24;74.48;97013.47;5089619;28;20051;-74
2023/02/01 10:27:40;;;;;;;13.50;12.10;;;;;;;4.38;74.65;97006.78;5088894;28;20043;-75
2023/02/01 10:30:20;;;;;;;15.35;12.63;;;;;;;4.35;74.55;97014.75;5089815;28;20024;-74
2023/02/01 10:32:49;;;;;;;17.27;13.82;;;;;;;4.50;74.13;97019.22;5089240;28;20039;-74
2023/02/01 10:35:23;;;;;;;14.23;11.65;;;;;;;4.42;73.87;97010.94;5091534;28;20036;-73
2023/02/01 10:37:50;;;;;;;32.50;22.27;;;;;;;4.44;75.10;97019.53;5092822;28;20027;-59
2023/02/01 10:40:15;;;;;;;21.02;16.02;;;;;;;4.57;73.46;97014.56;5092495;28;20028;-65
2023/02/01 10:42:41;;;;;;;14.18;12.18;;;;;;;4.89;73.61;97014.81;5092608;28;20060;-61
2023/02/01 10:45:07;;;;;;;12.40;11.02;;;;;;;5.04;72.04;97014.97;5093153;28;20026;-60
2023/02/01 10:47:32;;;;;;;21.15;17.02;;;;;;;4.92;71.57;97016.41;5092398;28;20035;-60
2023/02/01 10:50:38;;;;;;;14.95;12.15;;;;;;;5.05;70.58;97017.53;5073869;28;20039;-61
2023/02/01 10:53:10;;;;;;;13.95;11.95;;;;;;;5.34;69.94;97009.16;5092116;28;20024;-61
2023/02/01 10:55:45;;;;;;;11.98;10.23;;;;;;;5.53;67.39;97006.47;5092387;28;20024;-61
2023/02/01 10:58:19;;;;;;;8.30;7.43;;;;;;;5.78;67.29;97007.81;5092305;28;20525;-61
2023/02/01 11:00:55;;;;;;;16.95;12.85;;;;;;;5.94;67.48;96995.63;5091934;28;20531;-68
2023/02/01 11:03:22;;;;;;;;;;;;;;;6.21;65.45;97000.34;5081351;28;20031;-68
2023/02/01 11:05:48;;;;;;;5.20;4.70;;;;;;;6.25;63.56;97006.25;5092083;28;20293;-68
2023/02/01 11:08:19;;;;;;;6.68;5.80;;;;;;;6.33;62.88;97001.44;5092169;28;20035;-70
2023/02/01 11:10:44;;;;;;;6.60;6.00;;;;;;;6.60;63.92;96995.63;5091496;28;20020;-69
2023/02/01 11:13:18;;;;;;;6.30;5.80;;;;;;;6.82;63.67;96979.56;5092414;28;20016;-70
2023/02/01 11:15:45;;;;;;;7.63;6.50;;;;;;;6.88;62.85;96962.69;5079608;28;20020;-67
2023/02/01 11:18:17;;;;;;;7.75;6.65;;;;;;;7.07;61.63;96962.44;5091884;28;20044;-72
2023/02/01 11:20:43;;;;;;;7.38;6.18;;;;;;;7.13;59.13;96953.41;5091806;28;20095;-61
2023/02/01 11:23:19;;;;;;;6.32;5.60;;;;;;;7.02;58.53;96941.75;5092097;28;20024;-62
2023/02/01 11:25:52;;;;;;;;;;;;;;;7.09;59.47;96939.63;5091993;28;20032;-62
2023/02/01 11:28:19;;;;;;;23.55;14.43;;;;;;;7.16;59.51;96922.63;5091983;28;19930;-61
2023/02/01 11:30:48;;;;;;;7.10;6.05;;;;;;;7.25;57.18;96907.31;5091156;28;20053;-61
2023/02/01 11:33:20;;;;;;;7.07;5.68;;;;;;;7.26;57.48;96909.00;5091988;28;20024;-61
2023/02/01 11:35:48;;;;;;;11.63;7.45;;;;;;;7.04;57.68;96899.78;5091640;28;20047;-66
2023/02/01 11:38:21;;;;;;;8.40;6.78;;;;;;;6.99;58.39;96889.56;5091966;28;20047;-67
2023/02/01 11:40:46;;;;;;;10.57;7.70;;;;;;;7.30;58.32;96879.06;5094194;28;20052;-68
2023/02/01 11:43:25;;;;;;;9.32;6.53;;;;;;;7.40;57.52;96864.44;5091500;28;20067;-67
2023/02/01 11:46:22;;;;;;;10.65;9.18;;;;;;;7.73;57.83;96865.09;5090369;28;20111;-67
2023/02/01 11:48:47;;;;;;;7.05;6.18;;;;;;;7.82;56.16;96864.53;5090983;28;20213;-68
2023/02/01 11:51:46;;;;;;;6.78;6.13;;;;;;;7.80;54.91;96857.69;5091575;28;20069;-68
2023/02/01 11:54:33;;;;;;;6.50;5.90;;;;;;;8.03;55.33;96851.84;5091362;28;20020;-66